sensor_id;sensor_type;location;lat;lon;timestamp;pressure;altitude;pressure_sealevel;temperature;humidity
67840;BME280;54636;51.684;5.142;2023-04-03T00:01:20;103038.22;;;2.00;100.00
67840;BME280;54636;51.684;5.142;2023-04-03T00:03:45;103034.31;;;1.90;100.00
67840;BME280;54636;51.684;5.142;2023-04-03T00:06:11;103035.06;;;1.91;100.00
67840;BME280;54636;51.684;5.142;2023-04-03T00:08:38;103022.31;;;1.81;100.00
67840;BME280;54636;51.684;5.142;2023-04-03T00:11:04;103046.13;;;1.86;100.00
67840;BME280;54636;51.684;5.142;2023-04-03T00:13:30;103042.22;;;1.80;100.00
67840;BME280;54636;51.684;5.142;2023-04-03T00:15:56;103041.94;;;1.88;100.00
67840;BME280;54636;51.684;5.142;2023-04-03T00:18:21;103033.44;;;1.83;100.00
67840;BME280;54636;51.684;5.142;2023-04-03T00:20:47;103056.06;;;1.85;100.00
67840;BME280;54636;51.684;5.142;2023-04-03T00:23:13;103041.84;;;1.81;100.00
67840;BME280;54636;51.684;5.142;2023-04-03T00:25:39;103042.91;;;1.73;100.00
67840;BME280;54636;51.684;5.142;2023-04-03T00:28:04;103042.50;;;1.71;100.00
67840;BME280;54636;51.684;5.142;2023-04-03T00:30:30;103038.13;;;1.59;100.00
67840;BME280;54636;51.684;5.142;2023-04-03T00:32:56;103052.84;;;1.73;100.00
67840;BME280;54636;51.684;5.142;2023-04-03T00:35:23;103054.69;;;1.69;100.00
67840;BME280;54636;51.684;5.142;2023-04-03T00:37:51;103046.56;;;1.61;100.00
67840;BME280;54636;51.684;5.142;2023-04-03T00:40:18;103057.38;;;1.69;100.00
67840;BME280;54636;51.684;5.142;2023-04-03T00:42:46;103055.47;;;1.69;100.00
67840;BME280;54636;51.684;5.142;2023-04-03T00:47:43;103054.03;;;1.75;100.00
67840;BME280;54636;51.684;5.142;2023-04-03T00:50:08;103055.94;;;1.75;100.00
67840;BME280;54636;51.684;5.142;2023-04-03T00:52:34;103059.75;;;1.74;100.00
67840;BME280;54636;51.684;5.142;2023-04-03T00:55:04;103065.47;;;1.72;100.00
67840;BME280;54636;51.684;5.142;2023-04-03T00:57:31;103027.22;;;1.45;100.00
67840;BME280;54636;51.684;5.142;2023-04-03T01:00:03;103071.09;;;1.63;100.00
67840;BME280;54636;51.684;5.142;2023-04-03T01:02:29;103062.66;;;1.61;100.00
67840;BME280;54636;51.684;5.142;2023-04-03T01:04:55;103039.84;;;1.45;100.00
67840;BME280;54636;51.684;5.142;2023-04-03T01:07:26;103042.06;;;1.39;100.00
67840;BME280;54636;51.684;5.142;2023-04-03T01:09:56;103068.31;;;1.56;100.00
67840;BME280;54636;51.684;5.142;2023-04-03T01:12:26;103054.31;;;1.40;100.00
67840;BME280;54636;51.684;5.142;2023-04-03T01:14:55;103032.72;;;1.26;100.00
67840;BME280;54636;51.684;5.142;2023-04-03T01:17:50;103072.75;;;1.45;100.00
67840;BME280;54636;51.684;5.142;2023-04-03T01:25:27;103044.25;;;1.30;100.00
67840;BME280;54636;51.684;5.142;2023-04-03T01:27:53;103070.75;;;1.39;100.00
67840;BME280;54636;51.684;5.142;2023-04-03T01:30:20;103065.41;;;1.39;100.00
67840;BME280;54636;51.684;5.142;2023-04-03T01:32:46;103057.66;;;1.30;100.00
67840;BME280;54636;51.684;5.142;2023-04-03T01:35:12;103069.50;;;1.32;100.00
67840;BME280;54636;51.684;5.142;2023-04-03T01:37:37;103072.53;;;1.27;100.00
67840;BME280;54636;51.684;5.142;2023-04-03T01:40:04;103075.56;;;1.26;100.00
67840;BME280;54636;51.684;5.142;2023-04-03T01:42:29;103080.88;;;1.22;100.00
67840;BME280;54636;51.684;5.142;2023-04-03T01:44:55;103049.91;;;0.98;100.00
67840;BME280;54636;51.684;5.142;2023-04-03T01:47:21;103067.94;;;1.02;100.00
67840;BME280;54636;51.684;5.142;2023-04-03T01:49:47;103071.31;;;0.98;100.00
67840;BME280;54636;51.684;5.142;2023-04-03T01:52:12;103070.03;;;0.89;100.00
67840;BME280;54636;51.684;5.142;2023-04-03T01:54:38;103073.34;;;0.82;100.00
67840;BME280;54636;51.684;5.142;2023-04-03T01:57:03;103047.81;;;0.62;100.00
67840;BME280;54636;51.684;5.142;2023-04-03T01:59:28;103062.19;;;0.77;100.00
67840;BME280;54636;51.684;5.142;2023-04-03T02:01:54;103075.25;;;0.82;100.00
67840;BME280;54636;51.684;5.142;2023-04-03T02:04:19;103058.25;;;0.71;100.00
67840;BME280;54636;51.684;5.142;2023-04-03T02:06:45;103067.94;;;0.79;100.00
67840;BME280;54636;51.684;5.142;2023-04-03T02:09:10;103082.81;;;0.76;100.00
67840;BME280;54636;51.684;5.142;2023-04-03T02:11:36;103071.97;;;0.69;100.00
67840;BME280;54636;51.684;5.142;2023-04-03T02:14:01;103037.16;;;0.43;100.00
67840;BME280;54636;51.684;5.142;2023-04-03T02:16:27;103078.88;;;0.70;100.00
67840;BME280;54636;51.684;5.142;2023-04-03T02:18:53;103063.81;;;0.58;100.00
67840;BME280;54636;51.684;5.142;2023-04-03T02:21:19;103075.38;;;0.66;100.00
67840;BME280;54636;51.684;5.142;2023-04-03T02:23:44;103081.03;;;0.61;100.00
67840;BME280;54636;51.684;5.142;2023-04-03T02:26:12;103081.03;;;0.61;100.00
67840;BME280;54636;51.684;5.142;2023-04-03T02:28:38;103086.81;;;0.63;100.00
67840;BME280;54636;51.684;5.142;2023-04-03T02:31:04;103092.19;;;0.66;100.00
67840;BME280;54636;51.684;5.142;2023-04-03T02:33:31;103070.56;;;0.52;100.00
67840;BME280;54636;51.684;5.142;2023-04-03T02:35:58;103093.69;;;0.64;100.00
67840;BME280;54636;51.684;5.142;2023-04-03T02:38:24;103084.78;;;0.56;100.00
67840;BME280;54636;51.684;5.142;2023-04-03T02:40:50;103102.13;;;0.66;100.00
67840;BME280;54636;51.684;5.142;2023-04-03T02:43:17;103085.50;;;0.53;100.00
67840;BME280;54636;51.684;5.142;2023-04-03T02:45:42;103104.00;;;0.65;100.00
67840;BME280;54636;51.684;5.142;2023-04-03T02:48:07;103103.28;;;0.65;100.00
67840;BME280;54636;51.684;5.142;2023-04-03T02:50:33;103085.84;;;0.52;100.00
67840;BME280;54636;51.684;5.142;2023-04-03T02:52:58;103101.94;;;0.55;100.00
67840;BME280;54636;51.684;5.142;2023-04-03T02:55:24;103108.44;;;0.54;100.00
67840;BME280;54636;51.684;5.142;2023-04-03T02:57:49;103106.53;;;0.55;100.00
67840;BME280;54636;51.684;5.142;2023-04-03T03:00:15;103097.31;;;0.52;100.00
67840;BME280;54636;51.684;5.142;2023-04-03T03:02:40;103083.41;;;0.43;100.00
67840;BME280;54636;51.684;5.142;2023-04-03T03:05:06;103091.19;;;0.52;100.00
67840;BME280;54636;51.684;5.142;2023-04-03T03:07:32;103091.59;;;0.54;100.00
67840;BME280;54636;51.684;5.142;2023-04-03T03:09:58;103089.22;;;0.49;100.00
67840;BME280;54636;51.684;5.142;2023-04-03T03:12:23;103104.13;;;0.50;100.00
67840;BME280;54636;51.684;5.142;2023-04-03T03:14:49;103089.50;;;0.44;100.00
67840;BME280;54636;51.684;5.142;2023-04-03T03:17:15;103105.69;;;0.51;100.00
67840;BME280;54636;51.684;5.142;2023-04-03T03:19:41;103094.16;;;0.47;100.00
67840;BME280;54636;51.684;5.142;2023-04-03T03:22:06;103110.63;;;0.49;100.00
67840;BME280;54636;51.684;5.142;2023-04-03T03:24:32;103106.81;;;0.50;100.00
67840;BME280;54636;51.684;5.142;2023-04-03T03:26:57;103106.03;;;0.49;100.00
67840;BME280;54636;51.684;5.142;2023-04-03T03:29:23;103102.19;;;0.47;100.00
67840;BME280;54636;51.684;5.142;2023-04-03T03:31:48;103089.72;;;0.35;100.00
67840;BME280;54636;51.684;5.142;2023-04-03T03:34:13;103096.97;;;0.35;100.00
67840;BME280;54636;51.684;5.142;2023-04-03T03:36:39;103096.97;;;0.35;100.00
67840;BME280;54636;51.684;5.142;2023-04-03T03:39:05;103115.00;;;0.38;100.00
67840;BME280;54636;51.684;5.142;2023-04-03T03:41:31;103120.34;;;0.38;100.00
67840;BME280;54636;51.684;5.142;2023-04-03T03:43:56;103098.38;;;0.28;100.00
67840;BME280;54636;51.684;5.142;2023-04-03T03:46:22;103115.69;;;0.35;100.00
67840;BME280;54636;51.684;5.142;2023-04-03T03:48:47;103128.50;;;0.45;100.00
67840;BME280;54636;51.684;5.142;2023-04-03T03:51:13;103118.09;;;0.40;100.00
67840;BME280;54636;51.684;5.142;2023-04-03T03:53:38;103127.28;;;0.42;100.00
67840;BME280;54636;51.684;5.142;2023-04-03T03:56:04;103132.28;;;0.44;100.00
67840;BME280;54636;51.684;5.142;2023-04-03T03:58:31;103129.91;;;0.39;100.00
67840;BME280;54636;51.684;5.142;2023-04-03T04:01:00;103115.97;;;0.29;100.00
67840;BME280;54636;51.684;5.142;2023-04-03T04:03:25;103134.41;;;0.35;100.00
67840;BME280;54636;51.684;5.142;2023-04-03T04:05:51;103130.69;;;0.39;100.00
67840;BME280;54636;51.684;5.142;2023-04-03T04:08:16;103132.22;;;0.40;100.00
67840;BME280;54636;51.684;5.142;2023-04-03T04:10:42;103114.91;;;0.34;100.00
67840;BME280;54636;51.684;5.142;2023-04-03T04:13:08;103119.91;;;0.36;100.00
67840;BME280;54636;51.684;5.142;2023-04-03T04:15:33;103122.59;;;0.36;100.00
67840;BME280;54636;51.684;5.142;2023-04-03T04:17:59;103116.25;;;0.24;100.00
67840;BME280;54636;51.684;5.142;2023-04-03T04:20:24;103111.13;;;0.16;100.00
67840;BME280;54636;51.684;5.142;2023-04-03T04:22:49;103137.22;;;0.22;100.00
67840;BME280;54636;51.684;5.142;2023-04-03T04:25:15;103113.66;;;0.09;100.00
67840;BME280;54636;51.684;5.142;2023-04-03T04:27:40;103134.91;;;0.21;100.00
67840;BME280;54636;51.684;5.142;2023-04-03T04:30:06;103122.44;;;0.09;100.00
67840;BME280;54636;51.684;5.142;2023-04-03T04:32:32;103126.66;;;0.10;100.00
67840;BME280;54636;51.684;5.142;2023-04-03T04:34:57;103128.50;;;0.06;100.00
67840;BME280;54636;51.684;5.142;2023-04-03T04:37:23;103134.97;;;0.05;100.00
67840;BME280;54636;51.684;5.142;2023-04-03T04:39:48;103122.59;;;-0.03;100.00
67840;BME280;54636;51.684;5.142;2023-04-03T04:42:13;103126.09;;;0.01;100.00
67840;BME280;54636;51.684;5.142;2023-04-03T04:44:39;103127.25;;;0.00;100.00
67840;BME280;54636;51.684;5.142;2023-04-03T04:47:05;103128.66;;;-0.06;100.00
67840;BME280;54636;51.684;5.142;2023-04-03T04:49:30;103143.31;;;0.04;100.00
67840;BME280;54636;51.684;5.142;2023-04-03T04:51:55;103122.03;;;-0.12;100.00
67840;BME280;54636;51.684;5.142;2023-04-03T04:54:21;103132.53;;;-0.04;100.00
67840;BME280;54636;51.684;5.142;2023-04-03T04:56:46;103132.88;;;-0.05;100.00
67840;BME280;54636;51.684;5.142;2023-04-03T04:59:12;103153.66;;;0.05;100.00
67840;BME280;54636;51.684;5.142;2023-04-03T05:01:37;103137.44;;;-0.06;100.00
67840;BME280;54636;51.684;5.142;2023-04-03T05:04:03;103127.38;;;-0.12;100.00
67840;BME280;54636;51.684;5.142;2023-04-03T05:06:28;103159.00;;;0.05;100.00
67840;BME280;54636;51.684;5.142;2023-04-03T05:08:55;103157.75;;;-0.01;100.00
67840;BME280;54636;51.684;5.142;2023-04-03T05:11:21;103157.34;;;-0.03;100.00
67840;BME280;54636;51.684;5.142;2023-04-03T05:13:46;103146.50;;;-0.10;100.00
67840;BME280;54636;51.684;5.142;2023-04-03T05:16:12;103155.88;;;-0.01;100.00
67840;BME280;54636;51.684;5.142;2023-04-03T05:18:38;103160.44;;;-0.01;100.00
67840;BME280;54636;51.684;5.142;2023-04-03T05:21:03;103153.88;;;-0.04;100.00
67840;BME280;54636;51.684;5.142;2023-04-03T05:23:29;103161.56;;;-0.02;100.00
67840;BME280;54636;51.684;5.142;2023-04-03T05:25:55;103164.50;;;-0.07;100.00
67840;BME280;54636;51.684;5.142;2023-04-03T05:28:20;103155.13;;;-0.17;100.00
67840;BME280;54636;51.684;5.142;2023-04-03T05:30:55;103152.09;;;-0.15;100.00
67840;BME280;54636;51.684;5.142;2023-04-03T05:33:22;103154.94;;;-0.08;100.00
67840;BME280;54636;51.684;5.142;2023-04-03T05:35:47;103170.34;;;-0.02;100.00
67840;BME280;54636;51.684;5.142;2023-04-03T05:38:12;103173.41;;;0.00;100.00
67840;BME280;54636;51.684;5.142;2023-04-03T05:40:38;103176.47;;;-0.01;100.00
67840;BME280;54636;51.684;5.142;2023-04-03T05:43:03;103169.91;;;-0.04;100.00
67840;BME280;54636;51.684;5.142;2023-04-03T05:45:29;103172.66;;;0.19;100.00
67840;BME280;54636;51.684;5.142;2023-04-03T05:47:55;103138.97;;;0.15;100.00
67840;BME280;54636;51.684;5.142;2023-04-03T05:50:20;103170.59;;;0.71;100.00
67840;BME280;54636;51.684;5.142;2023-04-03T05:52:49;103179.81;;;1.42;100.00
67840;BME280;54636;51.684;5.142;2023-04-03T05:55:15;103184.88;;;2.29;100.00
67840;BME280;54636;51.684;5.142;2023-04-03T05:57:40;103196.19;;;2.83;100.00
67840;BME280;54636;51.684;5.142;2023-04-03T06:00:08;103184.56;;;3.12;100.00
67840;BME280;54636;51.684;5.142;2023-04-03T06:02:35;103195.28;;;3.09;100.00
67840;BME280;54636;51.684;5.142;2023-04-03T06:05:01;103180.28;;;2.67;100.00
67840;BME280;54636;51.684;5.142;2023-04-03T06:07:27;103170.41;;;2.75;100.00
67840;BME280;54636;51.684;5.142;2023-04-03T06:09:54;103198.34;;;3.07;100.00
67840;BME280;54636;51.684;5.142;2023-04-03T06:12:21;103198.56;;;3.36;100.00
67840;BME280;54636;51.684;5.142;2023-04-03T06:14:47;103191.50;;;3.68;99.29
67840;BME280;54636;51.684;5.142;2023-04-03T06:17:13;103190.53;;;4.05;96.89
67840;BME280;54636;51.684;5.142;2023-04-03T06:19:43;103179.78;;;4.05;93.01
67840;BME280;54636;51.684;5.142;2023-04-03T06:22:09;103214.13;;;4.33;89.70
67840;BME280;54636;51.684;5.142;2023-04-03T06:24:34;103211.06;;;4.38;89.37
67840;BME280;54636;51.684;5.142;2023-04-03T06:27:00;103215.34;;;4.56;89.92
67840;BME280;54636;51.684;5.142;2023-04-03T06:29:26;103201.88;;;4.56;88.36
67840;BME280;54636;51.684;5.142;2023-04-03T06:31:51;103164.53;;;4.34;88.49
67840;BME280;54636;51.684;5.142;2023-04-03T06:34:17;103219.28;;;4.87;85.15
67840;BME280;54636;51.684;5.142;2023-04-03T06:36:43;103186.16;;;4.69;85.85
67840;BME280;54636;51.684;5.142;2023-04-03T06:39:18;103195.41;;;4.79;85.53
67840;BME280;54636;51.684;5.142;2023-04-03T06:41:46;103218.91;;;4.96;84.18
67840;BME280;54636;51.684;5.142;2023-04-03T06:44:11;103216.59;;;4.87;83.23
67840;BME280;54636;51.684;5.142;2023-04-03T06:46:39;103201.50;;;4.51;84.55
67840;BME280;54636;51.684;5.142;2023-04-03T06:49:05;103217.22;;;4.35;86.01
67840;BME280;54636;51.684;5.142;2023-04-03T06:51:33;103226.00;;;4.24;87.02
67840;BME280;54636;51.684;5.142;2023-04-03T06:54:00;103215.09;;;3.96;86.53
67840;BME280;54636;51.684;5.142;2023-04-03T06:56:26;103224.28;;;3.91;87.85
67840;BME280;54636;51.684;5.142;2023-04-03T06:58:52;103209.88;;;3.59;89.48
67840;BME280;54636;51.684;5.142;2023-04-03T07:01:20;103219.06;;;3.58;88.57
67840;BME280;54636;51.684;5.142;2023-04-03T07:03:46;103220.53;;;3.48;89.97
67840;BME280;54636;51.684;5.142;2023-04-03T07:06:14;103222.34;;;3.34;90.84
67840;BME280;54636;51.684;5.142;2023-04-03T07:08:40;103231.91;;;3.31;90.97
67840;BME280;54636;51.684;5.142;2023-04-03T07:11:06;103217.59;;;3.16;91.47
67840;BME280;54636;51.684;5.142;2023-04-03T07:13:32;103224.59;;;3.28;92.78
67840;BME280;54636;51.684;5.142;2023-04-03T07:15:58;103232.28;;;3.29;93.24
67840;BME280;54636;51.684;5.142;2023-04-03T07:18:23;103251.19;;;3.44;93.64
67840;BME280;54636;51.684;5.142;2023-04-03T07:20:49;103247.38;;;3.45;91.94
67840;BME280;54636;51.684;5.142;2023-04-03T07:23:14;103227.38;;;3.39;91.07
67840;BME280;54636;51.684;5.142;2023-04-03T07:25:45;103245.53;;;3.56;90.20
67840;BME280;54636;51.684;5.142;2023-04-03T07:28:11;103251.34;;;3.61;91.61
67840;BME280;54636;51.684;5.142;2023-04-03T07:30:43;103252.97;;;3.73;89.16
67840;BME280;54636;51.684;5.142;2023-04-03T07:33:08;103249.53;;;3.76;87.97
67840;BME280;54636;51.684;5.142;2023-04-03T07:35:34;103242.31;;;3.91;91.90
67840;BME280;54636;51.684;5.142;2023-04-03T07:37:59;103241.56;;;3.87;87.94
67840;BME280;54636;51.684;5.142;2023-04-03T07:40:25;103247.34;;;3.96;88.68
67840;BME280;54636;51.684;5.142;2023-04-03T07:42:50;103242.34;;;3.94;88.61
67840;BME280;54636;51.684;5.142;2023-04-03T07:45:16;103246.66;;;4.06;87.57
67840;BME280;54636;51.684;5.142;2023-04-03T07:47:42;103259.78;;;4.18;89.78
67840;BME280;54636;51.684;5.142;2023-04-03T07:50:08;103243.66;;;4.22;87.09
67840;BME280;54636;51.684;5.142;2023-04-03T07:52:33;103254.09;;;4.30;86.05
67840;BME280;54636;51.684;5.142;2023-04-03T07:54:59;103254.13;;;4.38;86.89
67840;BME280;54636;51.684;5.142;2023-04-03T07:57:24;103262.25;;;4.48;84.03
67840;BME280;54636;51.684;5.142;2023-04-03T07:59:50;103268.78;;;4.58;80.59
67840;BME280;54636;51.684;5.142;2023-04-03T08:02:15;103260.00;;;4.68;82.94
67840;BME280;54636;51.684;5.142;2023-04-03T08:04:41;103260.81;;;4.86;80.72
67840;BME280;54636;51.684;5.142;2023-04-03T08:07:06;103238.09;;;4.73;78.94
67840;BME280;54636;51.684;5.142;2023-04-03T08:09:31;103248.13;;;4.90;78.91
67840;BME280;54636;51.684;5.142;2023-04-03T08:11:58;103255.13;;;5.16;81.57
67840;BME280;54636;51.684;5.142;2023-04-03T08:14:23;103262.41;;;5.26;78.78
67840;BME280;54636;51.684;5.142;2023-04-03T08:16:49;103260.13;;;5.36;80.75
67840;BME280;54636;51.684;5.142;2023-04-03T08:19:15;103263.97;;;5.52;74.73
67840;BME280;54636;51.684;5.142;2023-04-03T08:21:42;103252.44;;;5.62;75.76
67840;BME280;54636;51.684;5.142;2023-04-03T08:24:08;103244.72;;;5.57;76.26
67840;BME280;54636;51.684;5.142;2023-04-03T08:26:34;103276.28;;;5.85;72.22
67840;BME280;54636;51.684;5.142;2023-04-03T08:29:00;103277.84;;;5.93;71.60
67840;BME280;54636;51.684;5.142;2023-04-03T08:31:26;103222.38;;;5.57;68.32
67840;BME280;54636;51.684;5.142;2023-04-03T08:33:52;103273.59;;;5.89;66.79
67840;BME280;54636;51.684;5.142;2023-04-03T08:36:22;103274.75;;;5.95;66.79
67840;BME280;54636;51.684;5.142;2023-04-03T08:38:49;103272.44;;;5.93;68.73
67840;BME280;54636;51.684;5.142;2023-04-03T08:41:29;103229.31;;;5.76;65.40
67840;BME280;54636;51.684;5.142;2023-04-03T08:44:04;103271.28;;;5.94;63.45
67840;BME280;54636;51.684;5.142;2023-04-03T08:47:04;103282.44;;;6.11;63.09
67840;BME280;54636;51.684;5.142;2023-04-03T08:52:04;103297.06;;;6.27;64.77
67840;BME280;54636;51.684;5.142;2023-04-03T08:54:34;103291.63;;;6.35;58.80
67840;BME280;54636;51.684;5.142;2023-04-03T08:57:03;103296.56;;;6.50;57.50
67840;BME280;54636;51.684;5.142;2023-04-03T08:59:33;103301.22;;;6.50;57.99
67840;BME280;54636;51.684;5.142;2023-04-03T09:02:01;103298.88;;;6.52;55.42
67840;BME280;54636;51.684;5.142;2023-04-03T09:04:31;103297.72;;;6.53;54.64
67840;BME280;54636;51.684;5.142;2023-04-03T09:07:05;103302.69;;;6.69;53.41
67840;BME280;54636;51.684;5.142;2023-04-03T09:09:39;103301.50;;;6.77;53.18
67840;BME280;54636;51.684;5.142;2023-04-03T09:12:24;103282.56;;;6.80;55.47
67840;BME280;54636;51.684;5.142;2023-04-03T09:22:39;103266.13;;;7.16;47.38
67840;BME280;54636;51.684;5.142;2023-04-03T09:25:22;103271.81;;;7.32;47.77
67840;BME280;54636;51.684;5.142;2023-04-03T09:27:48;103279.78;;;7.50;46.66
67840;BME280;54636;51.684;5.142;2023-04-03T09:30:15;103279.41;;;7.51;46.94
67840;BME280;54636;51.684;5.142;2023-04-03T09:32:43;103285.66;;;7.41;44.48
67840;BME280;54636;51.684;5.142;2023-04-03T09:35:29;103256.41;;;7.25;46.95
67840;BME280;54636;51.684;5.142;2023-04-03T09:38:18;103277.50;;;7.48;45.71
67840;BME280;54636;51.684;5.142;2023-04-03T09:40:47;103274.00;;;7.51;42.04
67840;BME280;54636;51.684;5.142;2023-04-03T09:43:30;103271.69;;;7.50;42.53
67840;BME280;54636;51.684;5.142;2023-04-03T09:46:33;103273.06;;;7.69;40.99
67840;BME280;54636;51.684;5.142;2023-04-03T09:49:03;103266.09;;;7.71;41.84
67840;BME280;54636;51.684;5.142;2023-04-03T09:51:30;103251.97;;;7.90;41.91
67840;BME280;54636;51.684;5.142;2023-04-03T09:53:56;103250.91;;;7.81;43.14
67840;BME280;54636;51.684;5.142;2023-04-03T09:56:24;103269.06;;;7.80;40.03
67840;BME280;54636;51.684;5.142;2023-04-03T10:01:26;103255.16;;;7.82;41.74
67840;BME280;54636;51.684;5.142;2023-04-03T10:04:07;103234.28;;;7.82;41.84
67840;BME280;54636;51.684;5.142;2023-04-03T10:06:36;103253.41;;;8.02;39.52
67840;BME280;54636;51.684;5.142;2023-04-03T10:09:26;103244.53;;;8.02;38.22
67840;BME280;54636;51.684;5.142;2023-04-03T10:12:06;103248.75;;;8.03;40.33
67840;BME280;54636;51.684;5.142;2023-04-03T10:15:01;103247.16;;;8.09;38.75
67840;BME280;54636;51.684;5.142;2023-04-03T10:17:36;103228.56;;;8.11;39.44
67840;BME280;54636;51.684;5.142;2023-04-03T10:20:18;103241.28;;;8.48;37.56
67840;BME280;54636;51.684;5.142;2023-04-03T10:23:05;103249.16;;;8.69;37.25
67840;BME280;54636;51.684;5.142;2023-04-03T10:25:46;103233.53;;;8.50;37.81
67840;BME280;54636;51.684;5.142;2023-04-03T10:31:22;103225.56;;;8.66;37.62
67840;BME280;54636;51.684;5.142;2023-04-03T10:37:30;103225.56;;;8.39;36.39
67840;BME280;54636;51.684;5.142;2023-04-03T10:40:04;103222.13;;;8.32;36.89
67840;BME280;54636;51.684;5.142;2023-04-03T10:42:48;103205.34;;;8.13;39.11
67840;BME280;54636;51.684;5.142;2023-04-03T10:45:24;103221.88;;;8.22;40.13
67840;BME280;54636;51.684;5.142;2023-04-03T10:58:39;103202.19;;;8.49;38.49
67840;BME280;54636;51.684;5.142;2023-04-03T11:01:10;103205.47;;;8.64;38.72
67840;BME280;54636;51.684;5.142;2023-04-03T11:03:45;103202.63;;;8.74;38.55
67840;BME280;54636;51.684;5.142;2023-04-03T11:06:14;103186.81;;;8.69;35.80
67840;BME280;54636;51.684;5.142;2023-04-03T11:11:19;103192.66;;;8.68;34.71
67840;BME280;54636;51.684;5.142;2023-04-03T11:13:53;103207.44;;;8.63;33.32
67840;BME280;54636;51.684;5.142;2023-04-03T11:16:28;103173.59;;;8.75;34.90
67840;BME280;54636;51.684;5.142;2023-04-03T11:18:59;103180.38;;;8.86;33.36
67840;BME280;54636;51.684;5.142;2023-04-03T11:21:52;103191.94;;;8.90;33.96
67840;BME280;54636;51.684;5.142;2023-04-03T11:24:25;103190.81;;;8.88;34.86
67840;BME280;54636;51.684;5.142;2023-04-03T11:26:53;103178.44;;;8.87;32.97
67840;BME280;54636;51.684;5.142;2023-04-03T11:29:23;103184.63;;;9.11;32.71
67840;BME280;54636;51.684;5.142;2023-04-03T11:34:34;103202.66;;;8.98;33.40
67840;BME280;54636;51.684;5.142;2023-04-03T11:37:12;103181.25;;;8.80;31.54
67840;BME280;54636;51.684;5.142;2023-04-03T11:39:39;103164.75;;;8.71;32.25
67840;BME280;54636;51.684;5.142;2023-04-03T11:42:42;103180.50;;;8.79;34.04
67840;BME280;54636;51.684;5.142;2023-04-03T11:47:56;103170.44;;;9.27;31.12
67840;BME280;54636;51.684;5.142;2023-04-03T11:50:43;103146.44;;;9.25;32.01
67840;BME280;54636;51.684;5.142;2023-04-03T11:58:18;103150.84;;;9.39;32.26
67840;BME280;54636;51.684;5.142;2023-04-03T12:05:56;103149.28;;;9.61;30.66
67840;BME280;54636;51.684;5.142;2023-04-03T12:38:17;103108.22;;;9.59;32.42
67840;BME280;54636;51.684;5.142;2023-04-03T12:46:23;103116.44;;;9.55;33.52
67840;BME280;54636;51.684;5.142;2023-04-03T12:48:57;103077.72;;;9.12;34.20
67840;BME280;54636;51.684;5.142;2023-04-03T12:51:40;103123.44;;;9.33;34.25
67840;BME280;54636;51.684;5.142;2023-04-03T12:54:19;103112.28;;;9.28;35.55
67840;BME280;54636;51.684;5.142;2023-04-03T12:56:47;103119.19;;;9.32;34.90
67840;BME280;54636;51.684;5.142;2023-04-03T13:01:38;103108.66;;;9.14;35.99
67840;BME280;54636;51.684;5.142;2023-04-03T13:04:04;103093.91;;;9.15;33.85
67840;BME280;54636;51.684;5.142;2023-04-03T13:06:41;103094.47;;;9.07;36.13
67840;BME280;54636;51.684;5.142;2023-04-03T13:09:20;103079.09;;;9.00;37.47
67840;BME280;54636;51.684;5.142;2023-04-03T13:11:58;103086.78;;;9.25;37.74
67840;BME280;54636;51.684;5.142;2023-04-03T13:14:26;103070.97;;;9.20;37.42
67840;BME280;54636;51.684;5.142;2023-04-03T13:19:28;103086.78;;;9.45;37.89
67840;BME280;54636;51.684;5.142;2023-04-03T13:22:06;103076.16;;;9.54;36.82
67840;BME280;54636;51.684;5.142;2023-04-03T13:24:37;103066.06;;;9.35;36.92
67840;BME280;54636;51.684;5.142;2023-04-03T13:27:04;103071.28;;;9.45;38.23
67840;BME280;54636;51.684;5.142;2023-04-03T13:29:37;103049.28;;;9.20;38.00
67840;BME280;54636;51.684;5.142;2023-04-03T13:32:04;103084.56;;;9.40;35.75
67840;BME280;54636;51.684;5.142;2023-04-03T13:34:41;103065.56;;;9.40;38.13
67840;BME280;54636;51.684;5.142;2023-04-03T13:37:07;103064.25;;;9.68;37.08
67840;BME280;54636;51.684;5.142;2023-04-03T13:39:38;103069.06;;;9.40;38.93
67840;BME280;54636;51.684;5.142;2023-04-03T13:42:23;103041.16;;;9.40;38.66
67840;BME280;54636;51.684;5.142;2023-04-03T13:44:49;103060.22;;;9.36;39.12
67840;BME280;54636;51.684;5.142;2023-04-03T13:47:38;103047.16;;;9.51;38.20
67840;BME280;54636;51.684;5.142;2023-04-03T13:50:25;103067.25;;;9.34;38.94
67840;BME280;54636;51.684;5.142;2023-04-03T13:53:08;103085.13;;;9.31;38.78
67840;BME280;54636;51.684;5.142;2023-04-03T13:55:50;103056.66;;;9.19;38.39
67840;BME280;54636;51.684;5.142;2023-04-03T13:58:25;103025.66;;;9.20;39.24
67840;BME280;54636;51.684;5.142;2023-04-03T14:03:30;103047.97;;;9.28;39.09
67840;BME280;54636;51.684;5.142;2023-04-03T14:05:56;103054.31;;;9.41;39.97
67840;BME280;54636;51.684;5.142;2023-04-03T14:08:22;103056.81;;;9.72;38.30
67840;BME280;54636;51.684;5.142;2023-04-03T14:10:51;103046.44;;;9.47;40.03
67840;BME280;54636;51.684;5.142;2023-04-03T14:13:18;103040.88;;;9.34;37.39
67840;BME280;54636;51.684;5.142;2023-04-03T14:15:45;103048.75;;;9.29;37.69
67840;BME280;54636;51.684;5.142;2023-04-03T14:18:17;103056.94;;;9.25;40.06
67840;BME280;54636;51.684;5.142;2023-04-03T14:20:43;103042.13;;;9.30;38.89
67840;BME280;54636;51.684;5.142;2023-04-03T14:23:12;103050.84;;;9.41;39.15
67840;BME280;54636;51.684;5.142;2023-04-03T14:25:38;103021.97;;;9.11;38.80
67840;BME280;54636;51.684;5.142;2023-04-03T14:28:15;103040.31;;;9.23;39.30
67840;BME280;54636;51.684;5.142;2023-04-03T14:30:41;103034.06;;;9.26;40.23
67840;BME280;54636;51.684;5.142;2023-04-03T14:33:10;103034.97;;;9.39;39.79
67840;BME280;54636;51.684;5.142;2023-04-03T14:35:37;103028.38;;;9.40;39.81
67840;BME280;54636;51.684;5.142;2023-04-03T14:38:12;103042.91;;;9.30;39.25
67840;BME280;54636;51.684;5.142;2023-04-03T14:40:45;103042.91;;;9.30;39.46
67840;BME280;54636;51.684;5.142;2023-04-03T14:43:12;103047.47;;;9.13;40.59